createdAt,value
2023-03-11T00:03:28.494Z,0.77
2023-03-11T00:07:40.956Z,0.57
2023-03-11T00:11:53.433Z,0.70
2023-03-11T00:16:06.499Z,0.85
2023-03-11T00:20:26.724Z,0.70
2023-03-11T00:24:39.212Z,0.25
2023-03-11T00:28:51.677Z,0.80
2023-03-11T00:33:04.872Z,0.40
2023-03-11T00:37:17.269Z,0.30
2023-03-11T00:41:30.247Z,0.73
2023-03-11T00:45:43.034Z,0.88
2023-03-11T00:49:55.503Z,0.38
2023-03-11T00:54:07.948Z,0.68
2023-03-11T00:58:20.424Z,0.60
2023-03-11T01:02:32.877Z,0.60
2023-03-11T01:06:46.400Z,0.73
2023-03-11T01:11:01.243Z,0.20
2023-03-11T01:15:34.810Z,0.60
2023-03-11T01:19:47.334Z,0.40
2023-03-11T01:23:59.755Z,0.60
2023-03-11T01:28:12.624Z,0.28
2023-03-11T01:32:25.158Z,0.75
2023-03-11T01:36:37.632Z,0.70
2023-03-11T01:40:52.684Z,0.55
2023-03-11T01:46:03.346Z,0.43
2023-03-11T01:50:16.118Z,0.45
2023-03-11T01:54:34.924Z,0.70
2023-03-11T01:58:54.908Z,0.40
2023-03-11T02:03:15.014Z,0.55
2023-03-11T02:07:27.524Z,0.60
2023-03-11T02:11:40.123Z,0.47
2023-03-11T02:15:53.116Z,0.65
2023-03-11T02:20:43.790Z,0.25
2023-03-11T02:25:54.680Z,0.45
2023-03-11T02:30:08.579Z,0.35
2023-03-11T02:34:31.583Z,0.63
2023-03-11T02:38:44.143Z,0.50
2023-03-11T02:43:07.923Z,0.40
2023-03-11T02:47:20.390Z,0.93
2023-03-11T02:51:32.889Z,0.77
2023-03-11T02:55:45.356Z,0.73
2023-03-11T02:59:57.817Z,0.70
2023-03-11T03:04:14.040Z,0.30
2023-03-11T03:08:26.617Z,0.40
2023-03-11T03:12:39.178Z,0.73
2023-03-11T03:16:58.342Z,0.60
2023-03-11T03:21:11.050Z,0.55
2023-03-11T03:25:23.561Z,0.60
2023-03-11T03:29:36.022Z,0.57
2023-03-11T03:33:48.496Z,0.60
2023-03-11T03:38:04.224Z,0.50
2023-03-11T03:42:16.663Z,0.50
2023-03-11T03:46:29.377Z,0.68
2023-03-11T03:50:41.900Z,0.70
2023-03-11T03:54:54.415Z,0.55
2023-03-11T03:59:07.034Z,0.55
2023-03-11T04:03:19.529Z,1.15
2023-03-11T04:07:32.000Z,0.55
2023-03-11T04:11:54.501Z,0.30
2023-03-11T04:16:08.804Z,1.00
2023-03-11T04:20:21.476Z,1.10
2023-03-11T04:24:33.943Z,0.20
2023-03-11T04:28:51.802Z,0.40
2023-03-11T04:33:04.396Z,0.70
2023-03-11T04:37:16.869Z,0.73
2023-03-11T04:41:29.335Z,0.70
2023-03-11T04:45:52.387Z,1.10
2023-03-11T04:50:05.791Z,0.95
2023-03-11T04:54:18.238Z,0.60
2023-03-11T04:58:30.698Z,0.73
2023-03-11T05:02:43.694Z,0.77
2023-03-11T05:06:56.192Z,0.52
2023-03-11T05:11:09.633Z,0.93
2023-03-11T05:15:32.368Z,0.57
2023-03-11T05:19:44.863Z,0.40
2023-03-11T05:23:57.290Z,1.30
2023-03-11T05:28:19.765Z,0.68
2023-03-11T05:32:32.457Z,1.38
2023-03-11T05:36:45.578Z,1.20
2023-03-11T05:40:58.051Z,1.27
2023-03-11T05:45:11.288Z,0.70
2023-03-11T05:49:24.026Z,0.93
2023-03-11T05:53:36.803Z,0.52
2023-03-11T05:57:53.064Z,0.80
2023-03-11T06:02:05.649Z,0.82
2023-03-11T06:06:18.586Z,1.00
2023-03-11T06:10:31.150Z,0.90
2023-03-11T06:14:43.667Z,2.50
2023-03-11T06:18:56.569Z,3.40
2023-03-11T06:23:09.192Z,1.00
2023-03-11T06:27:21.627Z,1.00
2023-03-11T06:31:38.218Z,1.13
2023-03-11T06:35:58.932Z,1.10
2023-03-11T06:40:12.097Z,1.00
2023-03-11T06:44:26.366Z,0.75
2023-03-11T06:48:39.129Z,0.60
2023-03-11T06:52:51.605Z,0.57
2023-03-11T06:57:04.458Z,1.20
2023-03-11T07:01:23.800Z,1.23
2023-03-11T07:05:36.379Z,1.15
2023-03-11T07:09:48.836Z,0.28
2023-03-11T07:14:01.297Z,0.38
2023-03-11T07:18:23.728Z,1.20
2023-03-11T07:22:46.283Z,0.60
2023-03-11T07:26:58.801Z,0.65
2023-03-11T07:31:16.601Z,0.60
2023-03-11T07:35:29.233Z,0.90
2023-03-11T07:39:41.745Z,0.90
2023-03-11T07:44:00.711Z,0.70
2023-03-11T07:48:13.957Z,0.80
2023-03-11T07:52:26.438Z,0.80
2023-03-11T07:56:39.260Z,0.55
2023-03-11T08:00:52.380Z,0.77
2023-03-11T08:05:05.845Z,0.90
2023-03-11T08:09:18.650Z,0.45
2023-03-11T08:13:31.084Z,0.70
2023-03-11T08:17:43.561Z,0.90
2023-03-11T08:21:56.080Z,0.60
2023-03-11T08:26:12.443Z,0.85
2023-03-11T08:30:25.414Z,1.00
2023-03-11T08:34:40.226Z,0.60
2023-03-11T08:38:53.918Z,1.00
2023-03-11T08:43:06.660Z,0.82
2023-03-11T08:47:19.214Z,0.70
2023-03-11T08:51:34.383Z,0.80
2023-03-11T08:55:46.825Z,0.50
2023-03-11T08:59:59.445Z,0.55
2023-03-11T09:04:12.838Z,0.65
2023-03-11T09:08:27.038Z,0.95
2023-03-11T09:12:39.807Z,1.08
2023-03-11T09:16:52.341Z,0.75
2023-03-11T09:21:05.073Z,0.73
2023-03-11T09:25:17.838Z,1.08
2023-03-11T09:29:30.625Z,0.32
2023-03-11T09:33:44.429Z,0.32
2023-03-11T09:37:57.082Z,0.95
2023-03-11T09:43:13.496Z,0.85
2023-03-11T09:48:02.951Z,0.20
2023-03-11T09:52:20.524Z,1.00
2023-03-11T09:56:36.384Z,1.00
2023-03-11T10:00:52.927Z,0.68
2023-03-11T10:05:23.018Z,0.82
2023-03-11T10:09:49.787Z,0.40
2023-03-11T10:14:44.304Z,0.50
2023-03-11T10:19:28.969Z,0.90
2023-03-11T10:24:16.908Z,0.63
2023-03-11T10:28:53.825Z,0.63
2023-03-11T10:34:05.102Z,0.75
2023-03-11T10:38:36.784Z,0.82
2023-03-11T10:42:50.457Z,0.77
2023-03-11T10:47:23.758Z,0.90
2023-03-11T10:51:36.918Z,0.57
2023-03-11T10:55:56.487Z,0.80
2023-03-11T11:00:13.117Z,0.85
2023-03-11T11:04:41.534Z,0.70
2023-03-11T11:09:11.799Z,1.00
2023-03-11T11:13:31.973Z,0.80
2023-03-11T11:17:48.334Z,0.80
2023-03-11T11:22:06.230Z,0.93
2023-03-11T11:26:28.834Z,0.90
2023-03-11T11:31:07.361Z,0.52
2023-03-11T11:35:22.903Z,0.83
2023-03-11T11:39:52.268Z,0.88
2023-03-11T11:48:35.115Z,0.80
2023-03-11T11:52:58.392Z,0.88
2023-03-11T11:57:23.533Z,0.90
2023-03-11T12:01:59.192Z,1.30
2023-03-11T12:06:57.892Z,0.90
2023-03-11T12:11:20.932Z,1.20
2023-03-11T12:15:46.953Z,1.10
2023-03-11T12:20:12.104Z,0.68
2023-03-11T12:24:52.302Z,0.65
2023-03-11T12:29:26.949Z,0.75
2023-03-11T12:33:52.374Z,0.85
2023-03-11T12:38:14.065Z,0.90
2023-03-11T12:42:41.163Z,0.68
2023-03-11T12:47:03.351Z,1.27
2023-03-11T12:51:38.247Z,0.40
2023-03-11T12:56:21.965Z,0.80
2023-03-11T13:01:13.421Z,1.05
2023-03-11T13:06:08.346Z,0.70
2023-03-11T13:10:41.589Z,0.98
2023-03-11T13:15:19.454Z,0.93
2023-03-11T13:19:32.848Z,1.05
2023-03-11T13:23:45.376Z,1.02
2023-03-11T13:28:08.933Z,1.40
2023-03-11T13:32:55.111Z,1.20
2023-03-11T13:37:31.279Z,1.30
2023-03-11T13:41:45.588Z,1.13
2023-03-11T13:46:07.871Z,1.30
2023-03-11T13:50:31.099Z,0.40
2023-03-11T13:54:50.220Z,1.67
2023-03-11T13:59:34.506Z,0.90
2023-03-11T14:03:49.035Z,1.50
2023-03-11T14:08:24.206Z,1.10
2023-03-11T14:12:37.629Z,1.00
2023-03-11T14:16:50.190Z,0.70
2023-03-11T14:21:07.486Z,1.23
2023-03-11T14:25:25.456Z,1.30
2023-03-11T14:29:41.260Z,1.13
2023-03-11T14:34:14.665Z,0.73
2023-03-11T14:38:45.167Z,1.15
2023-03-11T14:54:54.343Z,1.55
2023-03-11T15:05:43.105Z,0.88
2023-03-11T15:09:57.122Z,1.08
2023-03-11T15:14:32.722Z,1.40
2023-03-11T15:18:45.223Z,1.27
2023-03-11T15:23:02.126Z,1.13
2023-03-11T15:27:44.654Z,1.30
2023-03-11T15:31:58.304Z,1.35
2023-03-11T15:36:40.216Z,0.75
2023-03-11T15:40:59.388Z,0.98
2023-03-11T15:45:17.334Z,1.45
2023-03-11T15:49:31.256Z,1.35
2023-03-11T15:53:43.701Z,1.30
2023-03-11T15:58:20.883Z,1.40
2023-03-11T16:02:33.765Z,1.55
2023-03-11T16:06:59.471Z,1.50
2023-03-11T16:11:19.592Z,0.90
2023-03-11T16:15:36.477Z,1.02
2023-03-11T16:19:55.410Z,1.20
2023-03-11T16:24:09.295Z,1.30
2023-03-11T16:28:21.877Z,1.23
2023-03-11T16:32:34.403Z,1.40
2023-03-11T16:36:48.254Z,1.58
2023-03-11T16:41:03.283Z,1.20
2023-03-11T16:45:18.608Z,1.30
2023-03-11T16:49:31.351Z,1.38
2023-03-11T16:53:43.912Z,2.05
2023-03-11T16:57:58.175Z,1.25
2023-03-11T17:02:12.668Z,0.82
2023-03-11T17:06:25.212Z,1.10
2023-03-11T17:10:44.274Z,1.00
2023-03-11T17:14:57.097Z,1.38
2023-03-11T17:19:09.694Z,1.45
2023-03-11T17:23:22.432Z,1.30
2023-03-11T17:27:34.980Z,1.08
2023-03-11T17:31:47.441Z,1.40
2023-03-11T17:36:08.289Z,1.17
2023-03-11T17:40:20.925Z,1.05
2023-03-11T17:44:50.040Z,1.55
2023-03-11T17:49:03.855Z,1.38
2023-03-11T17:53:16.384Z,1.30
2023-03-11T17:57:28.888Z,1.42
2023-03-11T18:01:41.347Z,1.38
2023-03-11T18:06:04.680Z,1.50
2023-03-11T18:10:17.596Z,1.58
2023-03-11T18:14:30.014Z,1.23
2023-03-11T18:18:43.744Z,1.30
2023-03-11T18:22:56.864Z,1.33
2023-03-11T18:27:09.311Z,1.40
2023-03-11T18:31:24.921Z,1.20
2023-03-11T18:35:37.435Z,1.40
2023-03-11T18:39:49.969Z,1.13
2023-03-11T18:44:03.539Z,1.10
2023-03-11T18:48:16.032Z,1.27
2023-03-11T18:52:29.020Z,1.20
2023-03-11T18:56:52.043Z,1.50
2023-03-11T19:01:14.688Z,1.73
2023-03-11T19:05:28.964Z,1.35
2023-03-11T19:09:50.812Z,1.85
2023-03-11T19:14:03.670Z,1.60
2023-03-11T19:18:16.470Z,2.10
2023-03-11T19:22:28.935Z,1.45
2023-03-11T19:26:45.305Z,1.70
2023-03-11T19:31:08.406Z,1.30
2023-03-11T19:35:22.712Z,1.80
2023-03-11T19:39:35.156Z,1.42
2023-03-11T19:43:48.590Z,2.05
2023-03-11T19:48:01.519Z,1.90
2023-03-11T19:52:14.461Z,1.80
2023-03-11T19:56:28.398Z,2.38
2023-03-11T20:00:42.523Z,1.67
2023-03-11T20:04:55.168Z,1.30
2023-03-11T20:09:07.842Z,1.20
2023-03-11T20:13:22.904Z,1.10
2023-03-11T20:17:35.521Z,1.10
2023-03-11T20:21:48.054Z,1.23
2023-03-11T20:26:00.837Z,1.10
2023-03-11T20:30:14.162Z,0.90
2023-03-11T20:34:26.682Z,1.10
2023-03-11T20:38:39.461Z,1.10
2023-03-11T20:42:52.056Z,1.10
2023-03-11T20:47:04.873Z,1.10
2023-03-11T20:51:21.096Z,1.08
2023-03-11T20:55:33.519Z,0.93
2023-03-11T20:59:45.984Z,0.85
2023-03-11T21:04:02.112Z,1.25
2023-03-11T21:08:23.554Z,0.98
2023-03-11T21:12:36.071Z,0.90
2023-03-11T21:16:49.154Z,1.17
2023-03-11T21:21:02.455Z,0.93
2023-03-11T21:25:15.180Z,1.20
2023-03-11T21:29:27.705Z,1.13
2023-03-11T21:33:41.848Z,1.27
2023-03-11T21:37:55.188Z,1.45
2023-03-11T21:42:08.001Z,1.63
2023-03-11T21:46:25.761Z,1.38
2023-03-11T21:50:42.224Z,1.27
2023-03-11T21:54:54.907Z,1.35
2023-03-11T21:59:08.587Z,1.67
2023-03-11T22:03:21.323Z,1.60
2023-03-11T22:07:43.894Z,1.70
2023-03-11T22:11:56.976Z,1.60
2023-03-11T22:16:09.741Z,1.35
2023-03-11T22:20:22.986Z,2.22
2023-03-11T22:24:35.471Z,2.22
2023-03-11T22:28:48.126Z,2.35
2023-03-11T22:33:00.591Z,1.58
2023-03-11T22:37:13.188Z,1.73
2023-03-11T22:41:29.787Z,2.13
2023-03-11T22:45:42.284Z,1.58
2023-03-11T22:49:54.776Z,2.17
2023-03-11T22:54:07.401Z,2.35
2023-03-11T22:58:21.601Z,2.05
2023-03-11T23:02:34.069Z,1.85
2023-03-11T23:06:46.500Z,1.88
2023-03-11T23:11:04.818Z,1.80
2023-03-11T23:15:19.626Z,1.48
2023-03-11T23:19:32.216Z,1.90
2023-03-11T23:23:44.767Z,1.95
2023-03-11T23:27:57.817Z,2.25
2023-03-11T23:32:12.721Z,1.90
2023-03-11T23:36:28.387Z,2.42
2023-03-11T23:40:42.355Z,2.45
2023-03-11T23:44:55.020Z,1.95
2023-03-11T23:49:07.466Z,2.25
2023-03-11T23:53:23.929Z,2.08
2023-03-11T23:57:37.459Z,2.47
